sensor_id;sensor_type;location;lat;lon;timestamp;P1;durP1;ratioP1;P2;durP2;ratioP2
25905;SDS011;13713;52.552;13.204;2023-07-13T00:01:47;15.65;;;13.95;;
25905;SDS011;13713;52.552;13.204;2023-07-13T00:04:21;16.40;;;14.63;;
25905;SDS011;13713;52.552;13.204;2023-07-13T00:06:50;18.55;;;14.80;;
25905;SDS011;13713;52.552;13.204;2023-07-13T00:09:17;15.60;;;13.55;;
25905;SDS011;13713;52.552;13.204;2023-07-13T00:11:43;17.02;;;14.55;;
25905;SDS011;13713;52.552;13.204;2023-07-13T00:14:10;16.30;;;13.63;;
25905;SDS011;13713;52.552;13.204;2023-07-13T00:16:37;18.35;;;14.50;;
25905;SDS011;13713;52.552;13.204;2023-07-13T00:19:05;15.88;;;13.93;;
25905;SDS011;13713;52.552;13.204;2023-07-13T00:21:31;17.27;;;14.88;;
25905;SDS011;13713;52.552;13.204;2023-07-13T00:23:57;15.82;;;14.05;;
25905;SDS011;13713;52.552;13.204;2023-07-13T00:26:23;14.68;;;13.10;;
25905;SDS011;13713;52.552;13.204;2023-07-13T00:28:49;15.30;;;13.32;;
25905;SDS011;13713;52.552;13.204;2023-07-13T00:31:14;16.48;;;13.73;;
25905;SDS011;13713;52.552;13.204;2023-07-13T00:33:41;16.70;;;14.25;;
25905;SDS011;13713;52.552;13.204;2023-07-13T00:36:07;15.43;;;13.52;;
25905;SDS011;13713;52.552;13.204;2023-07-13T00:38:34;15.57;;;13.82;;
25905;SDS011;13713;52.552;13.204;2023-07-13T00:41:00;15.95;;;13.20;;
25905;SDS011;13713;52.552;13.204;2023-07-13T00:43:29;16.02;;;14.32;;
25905;SDS011;13713;52.552;13.204;2023-07-13T00:48:22;14.60;;;13.10;;
25905;SDS011;13713;52.552;13.204;2023-07-13T00:50:52;15.50;;;13.02;;
25905;SDS011;13713;52.552;13.204;2023-07-13T00:53:20;15.30;;;12.95;;
25905;SDS011;13713;52.552;13.204;2023-07-13T00:55:47;15.38;;;13.68;;
25905;SDS011;13713;52.552;13.204;2023-07-13T00:58:15;15.02;;;12.73;;
25905;SDS011;13713;52.552;13.204;2023-07-13T01:00:41;16.50;;;14.00;;
25905;SDS011;13713;52.552;13.204;2023-07-13T01:03:07;15.82;;;13.55;;
25905;SDS011;13713;52.552;13.204;2023-07-13T01:05:34;15.00;;;13.40;;
25905;SDS011;13713;52.552;13.204;2023-07-13T01:08:01;16.27;;;13.57;;
25905;SDS011;13713;52.552;13.204;2023-07-13T01:10:32;15.07;;;13.48;;
25905;SDS011;13713;52.552;13.204;2023-07-13T01:13:13;15.75;;;13.13;;
25905;SDS011;13713;52.552;13.204;2023-07-13T01:15:42;14.95;;;13.10;;
25905;SDS011;13713;52.552;13.204;2023-07-13T01:18:12;15.60;;;13.88;;
25905;SDS011;13713;52.552;13.204;2023-07-13T01:20:40;14.20;;;12.70;;
25905;SDS011;13713;52.552;13.204;2023-07-13T01:23:07;15.43;;;13.35;;
25905;SDS011;13713;52.552;13.204;2023-07-13T01:25:35;14.98;;;12.80;;
25905;SDS011;13713;52.552;13.204;2023-07-13T01:28:06;15.38;;;12.52;;
25905;SDS011;13713;52.552;13.204;2023-07-13T01:30:37;15.13;;;13.07;;
25905;SDS011;13713;52.552;13.204;2023-07-13T01:33:08;14.75;;;12.68;;
25905;SDS011;13713;52.552;13.204;2023-07-13T01:35:35;17.98;;;13.10;;
25905;SDS011;13713;52.552;13.204;2023-07-13T01:38:01;14.15;;;12.55;;
25905;SDS011;13713;52.552;13.204;2023-07-13T01:40:27;14.23;;;12.20;;
25905;SDS011;13713;52.552;13.204;2023-07-13T01:42:53;14.20;;;12.32;;
25905;SDS011;13713;52.552;13.204;2023-07-13T01:45:19;16.55;;;13.07;;
25905;SDS011;13713;52.552;13.204;2023-07-13T01:47:46;13.80;;;12.32;;
25905;SDS011;13713;52.552;13.204;2023-07-13T01:50:12;13.98;;;12.52;;
25905;SDS011;13713;52.552;13.204;2023-07-13T01:52:38;14.30;;;12.63;;
25905;SDS011;13713;52.552;13.204;2023-07-13T01:55:04;13.63;;;11.80;;
25905;SDS011;13713;52.552;13.204;2023-07-13T01:57:30;14.45;;;12.68;;
25905;SDS011;13713;52.552;13.204;2023-07-13T01:59:56;15.07;;;12.93;;
25905;SDS011;13713;52.552;13.204;2023-07-13T02:02:22;13.70;;;12.23;;
25905;SDS011;13713;52.552;13.204;2023-07-13T02:04:47;15.40;;;13.05;;
25905;SDS011;13713;52.552;13.204;2023-07-13T02:07:13;14.18;;;12.15;;
25905;SDS011;13713;52.552;13.204;2023-07-13T02:09:40;13.48;;;11.82;;
25905;SDS011;13713;52.552;13.204;2023-07-13T02:12:07;13.63;;;12.23;;
25905;SDS011;13713;52.552;13.204;2023-07-13T02:14:34;14.35;;;12.93;;
25905;SDS011;13713;52.552;13.204;2023-07-13T02:17:00;14.27;;;12.32;;
25905;SDS011;13713;52.552;13.204;2023-07-13T02:19:25;13.90;;;11.98;;
25905;SDS011;13713;52.552;13.204;2023-07-13T02:21:51;14.05;;;12.45;;
25905;SDS011;13713;52.552;13.204;2023-07-13T02:24:17;14.35;;;12.85;;
25905;SDS011;13713;52.552;13.204;2023-07-13T02:26:44;13.43;;;11.85;;
25905;SDS011;13713;52.552;13.204;2023-07-13T02:29:10;13.52;;;12.13;;
25905;SDS011;13713;52.552;13.204;2023-07-13T02:31:36;13.43;;;11.98;;
25905;SDS011;13713;52.552;13.204;2023-07-13T02:34:02;13.75;;;11.95;;
25905;SDS011;13713;52.552;13.204;2023-07-13T02:36:29;14.23;;;12.73;;
25905;SDS011;13713;52.552;13.204;2023-07-13T02:38:57;14.02;;;12.52;;
25905;SDS011;13713;52.552;13.204;2023-07-13T02:41:26;12.38;;;11.05;;
25905;SDS011;13713;52.552;13.204;2023-07-13T02:43:52;12.80;;;11.50;;
25905;SDS011;13713;52.552;13.204;2023-07-13T02:46:18;13.57;;;11.52;;
25905;SDS011;13713;52.552;13.204;2023-07-13T02:48:44;14.48;;;12.38;;
25905;SDS011;13713;52.552;13.204;2023-07-13T02:51:12;13.85;;;11.55;;
25905;SDS011;13713;52.552;13.204;2023-07-13T02:53:38;14.02;;;11.45;;
25905;SDS011;13713;52.552;13.204;2023-07-13T02:56:04;13.98;;;12.18;;
25905;SDS011;13713;52.552;13.204;2023-07-13T02:58:30;12.70;;;11.43;;
25905;SDS011;13713;52.552;13.204;2023-07-13T03:00:56;13.40;;;11.63;;
25905;SDS011;13713;52.552;13.204;2023-07-13T03:03:23;13.57;;;12.18;;
25905;SDS011;13713;52.552;13.204;2023-07-13T03:05:57;12.57;;;11.20;;
25905;SDS011;13713;52.552;13.204;2023-07-13T03:08:25;13.75;;;11.48;;
25905;SDS011;13713;52.552;13.204;2023-07-13T03:13:58;13.82;;;11.63;;
25905;SDS011;13713;52.552;13.204;2023-07-13T03:16:25;13.15;;;11.75;;
25905;SDS011;13713;52.552;13.204;2023-07-13T03:18:52;13.23;;;11.82;;
25905;SDS011;13713;52.552;13.204;2023-07-13T03:21:18;13.13;;;11.70;;
25905;SDS011;13713;52.552;13.204;2023-07-13T03:23:44;12.32;;;10.85;;
25905;SDS011;13713;52.552;13.204;2023-07-13T03:26:11;13.60;;;12.10;;
25905;SDS011;13713;52.552;13.204;2023-07-13T03:28:40;12.82;;;11.48;;
25905;SDS011;13713;52.552;13.204;2023-07-13T03:31:10;13.25;;;11.85;;
25905;SDS011;13713;52.552;13.204;2023-07-13T03:33:41;14.48;;;11.65;;
25905;SDS011;13713;52.552;13.204;2023-07-13T03:36:12;12.90;;;11.38;;
25905;SDS011;13713;52.552;13.204;2023-07-13T03:38:42;13.48;;;12.02;;
25905;SDS011;13713;52.552;13.204;2023-07-13T03:41:08;14.52;;;12.25;;
25905;SDS011;13713;52.552;13.204;2023-07-13T03:43:34;14.02;;;11.82;;
25905;SDS011;13713;52.552;13.204;2023-07-13T03:45:59;15.13;;;11.82;;
25905;SDS011;13713;52.552;13.204;2023-07-13T03:48:25;13.00;;;11.38;;
25905;SDS011;13713;52.552;13.204;2023-07-13T03:50:51;12.70;;;11.07;;
25905;SDS011;13713;52.552;13.204;2023-07-13T03:53:17;12.18;;;10.93;;
25905;SDS011;13713;52.552;13.204;2023-07-13T03:55:44;13.52;;;11.85;;
25905;SDS011;13713;52.552;13.204;2023-07-13T03:58:26;13.45;;;12.05;;
25905;SDS011;13713;52.552;13.204;2023-07-13T04:01:04;12.68;;;10.70;;
25905;SDS011;13713;52.552;13.204;2023-07-13T04:03:32;12.35;;;11.05;;
25905;SDS011;13713;52.552;13.204;2023-07-13T04:05:59;17.55;;;14.77;;
25905;SDS011;13713;52.552;13.204;2023-07-13T04:08:31;51.15;;;43.35;;
25905;SDS011;13713;52.552;13.204;2023-07-13T04:10:59;55.50;;;45.10;;
25905;SDS011;13713;52.552;13.204;2023-07-13T04:13:26;34.78;;;27.73;;
25905;SDS011;13713;52.552;13.204;2023-07-13T04:15:52;25.60;;;20.08;;
25905;SDS011;13713;52.552;13.204;2023-07-13T04:18:19;16.75;;;12.80;;
25905;SDS011;13713;52.552;13.204;2023-07-13T04:20:48;15.70;;;11.52;;
25905;SDS011;13713;52.552;13.204;2023-07-13T04:23:18;12.85;;;11.13;;
25905;SDS011;13713;52.552;13.204;2023-07-13T04:25:44;14.68;;;10.40;;
25905;SDS011;13713;52.552;13.204;2023-07-13T04:28:11;11.35;;;9.93;;
25905;SDS011;13713;52.552;13.204;2023-07-13T04:30:37;13.65;;;9.30;;
25905;SDS011;13713;52.552;13.204;2023-07-13T04:33:03;12.73;;;9.63;;
25905;SDS011;13713;52.552;13.204;2023-07-13T04:35:29;12.43;;;9.73;;
25905;SDS011;13713;52.552;13.204;2023-07-13T04:37:56;14.07;;;10.68;;
25905;SDS011;13713;52.552;13.204;2023-07-13T04:40:22;12.27;;;9.50;;
25905;SDS011;13713;52.552;13.204;2023-07-13T04:42:47;13.35;;;10.18;;
25905;SDS011;13713;52.552;13.204;2023-07-13T04:45:14;14.00;;;10.30;;
25905;SDS011;13713;52.552;13.204;2023-07-13T04:47:40;13.13;;;9.18;;
25905;SDS011;13713;52.552;13.204;2023-07-13T04:50:07;16.70;;;10.52;;
25905;SDS011;13713;52.552;13.204;2023-07-13T04:52:33;14.70;;;9.98;;
25905;SDS011;13713;52.552;13.204;2023-07-13T04:54:59;17.33;;;10.27;;
25905;SDS011;13713;52.552;13.204;2023-07-13T04:57:26;16.70;;;10.85;;
25905;SDS011;13713;52.552;13.204;2023-07-13T04:59:52;16.38;;;10.45;;
25905;SDS011;13713;52.552;13.204;2023-07-13T05:02:20;14.45;;;10.10;;
25905;SDS011;13713;52.552;13.204;2023-07-13T05:04:47;15.57;;;10.65;;
25905;SDS011;13713;52.552;13.204;2023-07-13T05:07:13;21.58;;;11.63;;
25905;SDS011;13713;52.552;13.204;2023-07-13T05:09:38;23.58;;;11.18;;
25905;SDS011;13713;52.552;13.204;2023-07-13T05:12:05;24.63;;;12.32;;
25905;SDS011;13713;52.552;13.204;2023-07-13T05:14:32;21.90;;;11.77;;
25905;SDS011;13713;52.552;13.204;2023-07-13T05:16:58;22.42;;;12.13;;
25905;SDS011;13713;52.552;13.204;2023-07-13T05:19:23;19.80;;;11.85;;
25905;SDS011;13713;52.552;13.204;2023-07-13T05:21:49;22.52;;;12.15;;
25905;SDS011;13713;52.552;13.204;2023-07-13T05:24:15;20.95;;;12.73;;
25905;SDS011;13713;52.552;13.204;2023-07-13T05:26:41;17.30;;;11.65;;
25905;SDS011;13713;52.552;13.204;2023-07-13T05:29:06;23.35;;;11.90;;
25905;SDS011;13713;52.552;13.204;2023-07-13T05:31:32;22.95;;;13.13;;
25905;SDS011;13713;52.552;13.204;2023-07-13T05:33:58;23.65;;;12.30;;
25905;SDS011;13713;52.552;13.204;2023-07-13T05:36:23;20.85;;;11.52;;
25905;SDS011;13713;52.552;13.204;2023-07-13T05:38:49;24.67;;;12.25;;
25905;SDS011;13713;52.552;13.204;2023-07-13T05:41:15;21.23;;;11.98;;
25905;SDS011;13713;52.552;13.204;2023-07-13T05:43:40;42.03;;;28.48;;
25905;SDS011;13713;52.552;13.204;2023-07-13T05:46:06;30.42;;;16.83;;
25905;SDS011;13713;52.552;13.204;2023-07-13T05:48:32;26.60;;;15.10;;
25905;SDS011;13713;52.552;13.204;2023-07-13T05:50:58;26.13;;;13.95;;
25905;SDS011;13713;52.552;13.204;2023-07-13T05:53:23;25.55;;;14.10;;
25905;SDS011;13713;52.552;13.204;2023-07-13T05:55:49;25.73;;;13.98;;
25905;SDS011;13713;52.552;13.204;2023-07-13T05:58:16;26.92;;;12.95;;
25905;SDS011;13713;52.552;13.204;2023-07-13T06:00:42;28.15;;;16.40;;
25905;SDS011;13713;52.552;13.204;2023-07-13T06:03:08;21.38;;;13.15;;
25905;SDS011;13713;52.552;13.204;2023-07-13T06:05:35;21.98;;;12.48;;
25905;SDS011;13713;52.552;13.204;2023-07-13T06:08:03;23.98;;;11.93;;
25905;SDS011;13713;52.552;13.204;2023-07-13T06:10:29;23.77;;;13.00;;
25905;SDS011;13713;52.552;13.204;2023-07-13T06:12:58;25.17;;;11.70;;
25905;SDS011;13713;52.552;13.204;2023-07-13T06:15:24;26.25;;;12.05;;
25905;SDS011;13713;52.552;13.204;2023-07-13T06:17:49;26.85;;;13.63;;
25905;SDS011;13713;52.552;13.204;2023-07-13T06:20:15;22.60;;;14.43;;
25905;SDS011;13713;52.552;13.204;2023-07-13T06:22:41;20.38;;;13.50;;
25905;SDS011;13713;52.552;13.204;2023-07-13T06:25:06;28.83;;;14.63;;
25905;SDS011;13713;52.552;13.204;2023-07-13T06:27:33;23.88;;;13.15;;
25905;SDS011;13713;52.552;13.204;2023-07-13T06:29:58;24.58;;;12.75;;
25905;SDS011;13713;52.552;13.204;2023-07-13T06:32:24;26.95;;;14.27;;
25905;SDS011;13713;52.552;13.204;2023-07-13T06:34:50;28.88;;;13.68;;
25905;SDS011;13713;52.552;13.204;2023-07-13T06:37:17;28.35;;;13.75;;
25905;SDS011;13713;52.552;13.204;2023-07-13T06:39:43;29.92;;;14.80;;
25905;SDS011;13713;52.552;13.204;2023-07-13T06:42:09;26.73;;;14.23;;
25905;SDS011;13713;52.552;13.204;2023-07-13T06:44:36;28.10;;;15.40;;
25905;SDS011;13713;52.552;13.204;2023-07-13T06:47:01;28.45;;;13.88;;
25905;SDS011;13713;52.552;13.204;2023-07-13T06:49:27;24.55;;;12.27;;
25905;SDS011;13713;52.552;13.204;2023-07-13T06:51:53;77.30;;;45.13;;
25905;SDS011;13713;52.552;13.204;2023-07-13T06:54:18;66.13;;;35.63;;
25905;SDS011;13713;52.552;13.204;2023-07-13T06:56:44;31.88;;;15.45;;
25905;SDS011;13713;52.552;13.204;2023-07-13T06:59:10;35.88;;;18.15;;
25905;SDS011;13713;52.552;13.204;2023-07-13T07:01:36;33.60;;;18.33;;
25905;SDS011;13713;52.552;13.204;2023-07-13T07:04:02;31.88;;;15.88;;
25905;SDS011;13713;52.552;13.204;2023-07-13T07:06:28;34.35;;;16.65;;
25905;SDS011;13713;52.552;13.204;2023-07-13T07:08:54;32.08;;;15.93;;
25905;SDS011;13713;52.552;13.204;2023-07-13T07:11:21;31.45;;;14.52;;
25905;SDS011;13713;52.552;13.204;2023-07-13T07:13:49;32.90;;;17.80;;
25905;SDS011;13713;52.552;13.204;2023-07-13T07:16:16;44.28;;;23.42;;
25905;SDS011;13713;52.552;13.204;2023-07-13T07:18:41;38.60;;;20.25;;
25905;SDS011;13713;52.552;13.204;2023-07-13T07:21:07;37.50;;;20.13;;
25905;SDS011;13713;52.552;13.204;2023-07-13T07:23:33;31.67;;;16.85;;
25905;SDS011;13713;52.552;13.204;2023-07-13T07:25:59;34.72;;;15.35;;
25905;SDS011;13713;52.552;13.204;2023-07-13T07:28:24;30.73;;;15.25;;
25905;SDS011;13713;52.552;13.204;2023-07-13T07:30:52;26.58;;;12.80;;
25905;SDS011;13713;52.552;13.204;2023-07-13T07:33:19;28.05;;;13.82;;
25905;SDS011;13713;52.552;13.204;2023-07-13T07:35:45;33.00;;;17.30;;
25905;SDS011;13713;52.552;13.204;2023-07-13T07:38:11;55.42;;;29.85;;
25905;SDS011;13713;52.552;13.204;2023-07-13T07:40:40;29.25;;;17.05;;
25905;SDS011;13713;52.552;13.204;2023-07-13T07:43:07;36.72;;;19.83;;
25905;SDS011;13713;52.552;13.204;2023-07-13T07:45:33;35.15;;;18.13;;
25905;SDS011;13713;52.552;13.204;2023-07-13T07:47:59;36.67;;;23.25;;
25905;SDS011;13713;52.552;13.204;2023-07-13T07:50:26;49.00;;;27.13;;
25905;SDS011;13713;52.552;13.204;2023-07-13T07:52:52;42.90;;;22.75;;
25905;SDS011;13713;52.552;13.204;2023-07-13T07:55:18;39.50;;;19.67;;
25905;SDS011;13713;52.552;13.204;2023-07-13T07:57:44;66.93;;;34.97;;
25905;SDS011;13713;52.552;13.204;2023-07-13T08:00:10;58.60;;;33.38;;
25905;SDS011;13713;52.552;13.204;2023-07-13T08:02:42;48.83;;;24.35;;
25905;SDS011;13713;52.552;13.204;2023-07-13T08:05:09;36.45;;;17.27;;
25905;SDS011;13713;52.552;13.204;2023-07-13T08:07:36;33.45;;;16.35;;
25905;SDS011;13713;52.552;13.204;2023-07-13T08:10:02;39.90;;;15.57;;
25905;SDS011;13713;52.552;13.204;2023-07-13T08:12:29;35.42;;;17.13;;
25905;SDS011;13713;52.552;13.204;2023-07-13T08:14:54;36.10;;;14.93;;
25905;SDS011;13713;52.552;13.204;2023-07-13T08:17:23;34.72;;;15.20;;
25905;SDS011;13713;52.552;13.204;2023-07-13T08:19:49;33.55;;;14.65;;
25905;SDS011;13713;52.552;13.204;2023-07-13T08:22:15;44.83;;;15.80;;
25905;SDS011;13713;52.552;13.204;2023-07-13T08:24:41;72.90;;;17.15;;
25905;SDS011;13713;52.552;13.204;2023-07-13T08:27:08;70.15;;;20.73;;
25905;SDS011;13713;52.552;13.204;2023-07-13T08:29:34;42.75;;;15.45;;
25905;SDS011;13713;52.552;13.204;2023-07-13T08:32:00;44.47;;;21.40;;
25905;SDS011;13713;52.552;13.204;2023-07-13T08:34:25;36.80;;;18.65;;
25905;SDS011;13713;52.552;13.204;2023-07-13T08:36:51;32.95;;;15.23;;
25905;SDS011;13713;52.552;13.204;2023-07-13T08:39:17;34.10;;;13.50;;
25905;SDS011;13713;52.552;13.204;2023-07-13T08:41:44;121.05;;;23.27;;
25905;SDS011;13713;52.552;13.204;2023-07-13T08:44:43;31.63;;;11.52;;
25905;SDS011;13713;52.552;13.204;2023-07-13T08:47:22;19.77;;;9.25;;
25905;SDS011;13713;52.552;13.204;2023-07-13T08:49:49;120.07;;;20.73;;
25905;SDS011;13713;52.552;13.204;2023-07-13T08:52:17;76.22;;;14.48;;
25905;SDS011;13713;52.552;13.204;2023-07-13T08:54:58;52.03;;;15.57;;
25905;SDS011;13713;52.552;13.204;2023-07-13T08:57:35;51.33;;;23.75;;
25905;SDS011;13713;52.552;13.204;2023-07-13T09:00:01;83.00;;;48.35;;
25905;SDS011;13713;52.552;13.204;2023-07-13T09:05:13;48.85;;;19.02;;
25905;SDS011;13713;52.552;13.204;2023-07-13T09:07:41;83.20;;;22.85;;
25905;SDS011;13713;52.552;13.204;2023-07-13T09:10:21;65.57;;;22.50;;
25905;SDS011;13713;52.552;13.204;2023-07-13T09:15:46;55.75;;;28.77;;
25905;SDS011;13713;52.552;13.204;2023-07-13T09:18:16;29.35;;;17.75;;
25905;SDS011;13713;52.552;13.204;2023-07-13T09:23:54;77.47;;;26.48;;
25905;SDS011;13713;52.552;13.204;2023-07-13T09:26:25;104.38;;;27.08;;
25905;SDS011;13713;52.552;13.204;2023-07-13T09:28:57;256.42;;;42.05;;
25905;SDS011;13713;52.552;13.204;2023-07-13T09:31:39;79.03;;;24.13;;
25905;SDS011;13713;52.552;13.204;2023-07-13T09:34:10;49.60;;;21.93;;
25905;SDS011;13713;52.552;13.204;2023-07-13T09:36:37;52.85;;;22.58;;
25905;SDS011;13713;52.552;13.204;2023-07-13T09:41:46;104.20;;;31.65;;
25905;SDS011;13713;52.552;13.204;2023-07-13T09:47:01;127.57;;;40.38;;
25905;SDS011;13713;52.552;13.204;2023-07-13T09:49:34;94.95;;;35.80;;
25905;SDS011;13713;52.552;13.204;2023-07-13T09:52:02;70.68;;;32.38;;
25905;SDS011;13713;52.552;13.204;2023-07-13T09:54:33;92.78;;;34.83;;
25905;SDS011;13713;52.552;13.204;2023-07-13T09:57:15;78.07;;;31.85;;
25905;SDS011;13713;52.552;13.204;2023-07-13T09:59:46;135.68;;;34.90;;
25905;SDS011;13713;52.552;13.204;2023-07-13T10:05:05;136.82;;;35.88;;
25905;SDS011;13713;52.552;13.204;2023-07-13T10:07:39;60.33;;;27.90;;
25905;SDS011;13713;52.552;13.204;2023-07-13T10:10:13;54.75;;;26.70;;
25905;SDS011;13713;52.552;13.204;2023-07-13T10:12:41;69.30;;;31.02;;
25905;SDS011;13713;52.552;13.204;2023-07-13T10:15:07;53.17;;;27.77;;
25905;SDS011;13713;52.552;13.204;2023-07-13T10:17:41;52.10;;;25.65;;
25905;SDS011;13713;52.552;13.204;2023-07-13T10:20:09;52.22;;;24.63;;
25905;SDS011;13713;52.552;13.204;2023-07-13T10:22:51;39.45;;;21.17;;
25905;SDS011;13713;52.552;13.204;2023-07-13T10:25:19;39.20;;;20.70;;
25905;SDS011;13713;52.552;13.204;2023-07-13T10:27:47;30.55;;;17.60;;
25905;SDS011;13713;52.552;13.204;2023-07-13T10:30:27;27.98;;;16.85;;
25905;SDS011;13713;52.552;13.204;2023-07-13T10:33:00;34.53;;;18.90;;
25905;SDS011;13713;52.552;13.204;2023-07-13T10:35:28;41.25;;;21.70;;
25905;SDS011;13713;52.552;13.204;2023-07-13T10:38:01;46.58;;;27.42;;
25905;SDS011;13713;52.552;13.204;2023-07-13T10:40:38;44.83;;;26.13;;
25905;SDS011;13713;52.552;13.204;2023-07-13T10:43:22;41.63;;;23.75;;
25905;SDS011;13713;52.552;13.204;2023-07-13T10:45:57;38.30;;;23.38;;
25905;SDS011;13713;52.552;13.204;2023-07-13T10:48:25;38.25;;;24.23;;
25905;SDS011;13713;52.552;13.204;2023-07-13T10:50:52;41.95;;;23.83;;
25905;SDS011;13713;52.552;13.204;2023-07-13T10:53:21;49.78;;;25.92;;
25905;SDS011;13713;52.552;13.204;2023-07-13T10:58:28;36.25;;;19.00;;
25905;SDS011;13713;52.552;13.204;2023-07-13T11:01:10;147.68;;;31.67;;
25905;SDS011;13713;52.552;13.204;2023-07-13T11:09:17;71.50;;;27.27;;
25905;SDS011;13713;52.552;13.204;2023-07-13T11:12:08;65.50;;;28.45;;
25905;SDS011;13713;52.552;13.204;2023-07-13T11:38:21;78.20;;;29.15;;
25905;SDS011;13713;52.552;13.204;2023-07-13T11:40:56;78.35;;;28.63;;
25905;SDS011;13713;52.552;13.204;2023-07-13T11:43:28;103.88;;;30.42;;
25905;SDS011;13713;52.552;13.204;2023-07-13T11:45:54;98.80;;;35.90;;
25905;SDS011;13713;52.552;13.204;2023-07-13T11:48:24;73.72;;;28.20;;
25905;SDS011;13713;52.552;13.204;2023-07-13T11:50:53;61.95;;;23.55;;
25905;SDS011;13713;52.552;13.204;2023-07-13T11:53:26;56.35;;;21.38;;
25905;SDS011;13713;52.552;13.204;2023-07-13T11:55:54;48.92;;;21.92;;
25905;SDS011;13713;52.552;13.204;2023-07-13T11:58:23;90.75;;;28.80;;
25905;SDS011;13713;52.552;13.204;2023-07-13T12:00:50;62.33;;;27.02;;
25905;SDS011;13713;52.552;13.204;2023-07-13T12:03:21;47.60;;;23.38;;
25905;SDS011;13713;52.552;13.204;2023-07-13T12:05:56;39.10;;;21.42;;
25905;SDS011;13713;52.552;13.204;2023-07-13T12:08:25;46.40;;;21.58;;
25905;SDS011;13713;52.552;13.204;2023-07-13T12:11:03;45.10;;;22.90;;
25905;SDS011;13713;52.552;13.204;2023-07-13T12:13:40;33.22;;;16.77;;
25905;SDS011;13713;52.552;13.204;2023-07-13T12:16:12;40.13;;;19.30;;
25905;SDS011;13713;52.552;13.204;2023-07-13T12:18:41;41.60;;;20.73;;
25905;SDS011;13713;52.552;13.204;2023-07-13T12:21:12;38.30;;;21.08;;
25905;SDS011;13713;52.552;13.204;2023-07-13T12:23:39;37.17;;;19.42;;
25905;SDS011;13713;52.552;13.204;2023-07-13T12:26:09;47.20;;;24.80;;
25905;SDS011;13713;52.552;13.204;2023-07-13T12:34:17;57.33;;;31.52;;
25905;SDS011;13713;52.552;13.204;2023-07-13T12:39:33;54.40;;;29.92;;
25905;SDS011;13713;52.552;13.204;2023-07-13T12:45:17;47.97;;;23.10;;
25905;SDS011;13713;52.552;13.204;2023-07-13T12:47:54;46.67;;;25.30;;
25905;SDS011;13713;52.552;13.204;2023-07-13T12:50:40;42.13;;;23.17;;
25905;SDS011;13713;52.552;13.204;2023-07-13T12:53:30;43.95;;;23.90;;
25905;SDS011;13713;52.552;13.204;2023-07-13T12:55:58;45.67;;;20.58;;
25905;SDS011;13713;52.552;13.204;2023-07-13T13:00:57;39.90;;;19.20;;
25905;SDS011;13713;52.552;13.204;2023-07-13T13:08:30;42.95;;;17.40;;
25905;SDS011;13713;52.552;13.204;2023-07-13T13:10:57;48.00;;;19.33;;
25905;SDS011;13713;52.552;13.204;2023-07-13T13:13:23;53.88;;;21.63;;
25905;SDS011;13713;52.552;13.204;2023-07-13T13:15:50;71.97;;;22.77;;
25905;SDS011;13713;52.552;13.204;2023-07-13T13:18:16;62.15;;;22.45;;
25905;SDS011;13713;52.552;13.204;2023-07-13T13:23:14;52.70;;;19.00;;
25905;SDS011;13713;52.552;13.204;2023-07-13T13:25:44;51.70;;;19.70;;
25905;SDS011;13713;52.552;13.204;2023-07-13T13:30:42;49.15;;;23.67;;
25905;SDS011;13713;52.552;13.204;2023-07-13T13:33:12;70.18;;;35.97;;
25905;SDS011;13713;52.552;13.204;2023-07-13T13:35:46;84.25;;;47.40;;
25905;SDS011;13713;52.552;13.204;2023-07-13T13:38:12;63.15;;;32.60;;
25905;SDS011;13713;52.552;13.204;2023-07-13T13:40:43;51.58;;;28.85;;
25905;SDS011;13713;52.552;13.204;2023-07-13T13:45:43;50.38;;;24.55;;
25905;SDS011;13713;52.552;13.204;2023-07-13T13:48:14;50.28;;;24.90;;
25905;SDS011;13713;52.552;13.204;2023-07-13T13:50:43;38.75;;;19.73;;
25905;SDS011;13713;52.552;13.204;2023-07-13T13:53:10;45.35;;;21.17;;
25905;SDS011;13713;52.552;13.204;2023-07-13T13:55:37;50.28;;;21.55;;
25905;SDS011;13713;52.552;13.204;2023-07-13T13:58:03;40.83;;;17.45;;
25905;SDS011;13713;52.552;13.204;2023-07-13T14:00:29;38.05;;;17.10;;
25905;SDS011;13713;52.552;13.204;2023-07-13T14:02:55;44.83;;;18.15;;
25905;SDS011;13713;52.552;13.204;2023-07-13T14:05:23;39.03;;;17.48;;
25905;SDS011;13713;52.552;13.204;2023-07-13T14:07:53;47.80;;;18.57;;
25905;SDS011;13713;52.552;13.204;2023-07-13T14:10:19;38.47;;;17.08;;
25905;SDS011;13713;52.552;13.204;2023-07-13T14:12:47;41.03;;;18.77;;
25905;SDS011;13713;52.552;13.204;2023-07-13T14:17:45;39.40;;;17.15;;
25905;SDS011;13713;52.552;13.204;2023-07-13T14:20:14;35.22;;;15.98;;
25905;SDS011;13713;52.552;13.204;2023-07-13T14:22:41;41.38;;;18.98;;
25905;SDS011;13713;52.552;13.204;2023-07-13T14:25:13;42.88;;;18.40;;
25905;SDS011;13713;52.552;13.204;2023-07-13T14:27:41;35.22;;;16.35;;
25905;SDS011;13713;52.552;13.204;2023-07-13T14:30:18;33.33;;;15.27;;
25905;SDS011;13713;52.552;13.204;2023-07-13T14:32:46;58.30;;;27.05;;
25905;SDS011;13713;52.552;13.204;2023-07-13T14:35:13;66.85;;;33.63;;
25905;SDS011;13713;52.552;13.204;2023-07-13T14:37:40;67.45;;;43.25;;
25905;SDS011;13713;52.552;13.204;2023-07-13T14:42:43;73.47;;;33.05;;
25905;SDS011;13713;52.552;13.204;2023-07-13T14:45:15;76.82;;;34.13;;
25905;SDS011;13713;52.552;13.204;2023-07-13T14:47:43;86.32;;;37.03;;
25905;SDS011;13713;52.552;13.204;2023-07-13T14:50:16;102.88;;;41.72;;
25905;SDS011;13713;52.552;13.204;2023-07-13T14:52:49;98.60;;;39.53;;
25905;SDS011;13713;52.552;13.204;2023-07-13T14:55:16;114.10;;;40.28;;
25905;SDS011;13713;52.552;13.204;2023-07-13T14:57:43;122.50;;;43.28;;
25905;SDS011;13713;52.552;13.204;2023-07-13T15:00:14;122.53;;;45.70;;
25905;SDS011;13713;52.552;13.204;2023-07-13T15:02:42;120.25;;;45.88;;
25905;SDS011;13713;52.552;13.204;2023-07-13T15:05:16;155.07;;;65.45;;
25905;SDS011;13713;52.552;13.204;2023-07-13T15:07:48;158.15;;;69.43;;
25905;SDS011;13713;52.552;13.204;2023-07-13T15:10:22;160.25;;;68.10;;
25905;SDS011;13713;52.552;13.204;2023-07-13T15:12:56;181.30;;;66.00;;
25905;SDS011;13713;52.552;13.204;2023-07-13T15:15:42;180.50;;;67.45;;
25905;SDS011;13713;52.552;13.204;2023-07-13T15:18:11;175.93;;;65.38;;
25905;SDS011;13713;52.552;13.204;2023-07-13T15:20:37;167.27;;;65.10;;
25905;SDS011;13713;52.552;13.204;2023-07-13T15:23:04;166.43;;;65.97;;
25905;SDS011;13713;52.552;13.204;2023-07-13T15:25:30;188.60;;;81.43;;
25905;SDS011;13713;52.552;13.204;2023-07-13T15:27:58;220.32;;;90.65;;
25905;SDS011;13713;52.552;13.204;2023-07-13T15:30:27;199.77;;;85.68;;
25905;SDS011;13713;52.552;13.204;2023-07-13T15:32:58;216.77;;;82.63;;
25905;SDS011;13713;52.552;13.204;2023-07-13T15:35:31;207.48;;;80.63;;
25905;SDS011;13713;52.552;13.204;2023-07-13T15:37:58;207.90;;;77.18;;
25905;SDS011;13713;52.552;13.204;2023-07-13T15:40:24;208.23;;;81.75;;
25905;SDS011;13713;52.552;13.204;2023-07-13T15:42:50;197.07;;;80.60;;